Terminal Aerodrome Forecast
Issued by NWS

Home | Current Version | Previous Version | Graphics & Text | Print | Product List | Glossary On
Versions: 1 2 3 4 5 6 7 8 9 10 11 12 13 14 15 16 17 18 19
000
FTUS43 KFGF 261720
TAFBJI
TAF
KBJI 261720Z 2618/2718 03010KT P6SM OVC010
      TEMPO 2618/2622 1SM -SN OVC003
     FM262300 02009KT P6SM OVC010
      TEMPO 2623/2701 3SM -SN OVC003
     FM270400 01008KT P6SM OVC020
     FM270700 01007KT P6SM BKN025
     FM271400 34008KT P6SM OVC010=

USA.gov is the U.S. government's official web portal to all federal, state and local government web resources and services.